createdAt,value
2018-05-17T00:00:14.346Z,1013.63
2018-05-17T00:01:14.367Z,1013.62
2018-05-17T00:02:14.385Z,1013.62
2018-05-17T00:03:14.406Z,1013.64
2018-05-17T00:04:14.423Z,1013.64
2018-05-17T00:05:14.444Z,1013.57
2018-05-17T00:06:14.464Z,1013.71
2018-05-17T00:07:14.484Z,1013.64
2018-05-17T00:08:14.503Z,1013.68
2018-05-17T00:09:14.521Z,1013.67
2018-05-17T00:10:14.541Z,1013.69
2018-05-17T00:11:14.561Z,1013.73
2018-05-17T00:12:14.584Z,1013.72
2018-05-17T00:13:14.606Z,1013.70
2018-05-17T00:14:14.620Z,1013.71
2018-05-17T00:15:14.644Z,1013.74
2018-05-17T00:16:14.657Z,1013.69
2018-05-17T00:17:14.677Z,1013.64
2018-05-17T00:18:14.697Z,1013.69
2018-05-17T00:19:14.717Z,1013.67
2018-05-17T00:20:14.736Z,1013.69
2018-05-17T00:21:14.755Z,1013.61
2018-05-17T00:22:14.774Z,1013.64
2018-05-17T00:23:14.795Z,1013.65
2018-05-17T00:24:14.813Z,1013.69
2018-05-17T00:25:14.832Z,1013.68
2018-05-17T00:26:14.853Z,1013.71
2018-05-17T00:27:14.873Z,1013.73
2018-05-17T00:28:14.891Z,1013.70
2018-05-17T00:29:14.913Z,1013.72
2018-05-17T00:30:14.930Z,1013.71
2018-05-17T00:31:14.950Z,1013.76
2018-05-17T00:32:14.968Z,1013.75
2018-05-17T00:33:14.988Z,1013.79
2018-05-17T00:34:15.013Z,1013.76
2018-05-17T00:35:15.027Z,1013.69
2018-05-17T00:36:15.045Z,1013.77
2018-05-17T00:37:15.064Z,1013.77
2018-05-17T00:38:15.087Z,1013.76
2018-05-17T00:39:15.104Z,1013.82
2018-05-17T00:40:15.124Z,1013.79
2018-05-17T00:41:15.142Z,1013.80
2018-05-17T00:42:15.162Z,1013.83
2018-05-17T00:43:15.181Z,1013.82
2018-05-17T00:44:15.200Z,1013.77
2018-05-17T00:45:15.220Z,1013.83
2018-05-17T00:46:15.243Z,1013.82
2018-05-17T00:47:15.258Z,1013.82
2018-05-17T00:48:15.277Z,1013.80
2018-05-17T00:49:15.296Z,1013.79
2018-05-17T00:50:15.317Z,1013.81
2018-05-17T00:51:15.336Z,1013.81
2018-05-17T00:52:15.354Z,1013.81
2018-05-17T00:53:15.374Z,1013.83
2018-05-17T00:54:15.392Z,1013.82
2018-05-17T00:55:15.411Z,1013.83
2018-05-17T00:56:15.431Z,1013.86
2018-05-17T00:57:15.505Z,1013.80
2018-05-17T00:58:15.470Z,1013.74
2018-05-17T00:59:15.490Z,1013.77
2018-05-17T01:00:15.508Z,1013.76
2018-05-17T01:01:15.528Z,1013.75
2018-05-17T01:02:15.598Z,1013.72
2018-05-17T01:03:15.566Z,1013.74
2018-05-17T01:04:15.586Z,1013.74
2018-05-17T01:05:15.609Z,1013.74
2018-05-17T01:06:15.625Z,1013.77
2018-05-17T01:07:15.643Z,1013.78
2018-05-17T01:08:15.663Z,1013.72
2018-05-17T01:09:15.681Z,1013.73
2018-05-17T01:10:15.701Z,1013.79
2018-05-17T01:11:15.721Z,1013.66
2018-05-17T01:12:15.739Z,1013.74
2018-05-17T01:13:15.808Z,1013.73
2018-05-17T01:14:15.778Z,1013.74
2018-05-17T01:15:15.797Z,1013.85
2018-05-17T01:16:15.816Z,1013.79
2018-05-17T01:17:15.836Z,1013.82
2018-05-17T01:18:15.855Z,1013.83
2018-05-17T01:19:15.874Z,1013.79
2018-05-17T01:20:15.894Z,1013.82
2018-05-17T01:21:15.914Z,1013.81
2018-05-17T01:22:15.933Z,1013.78
2018-05-17T01:23:15.952Z,1013.80
2018-05-17T01:24:15.970Z,1013.80
2018-05-17T01:25:15.990Z,1013.81
2018-05-17T01:26:16.010Z,1013.82
2018-05-17T01:27:16.032Z,1013.84
2018-05-17T01:28:16.047Z,1013.82
2018-05-17T01:29:16.067Z,1013.91
2018-05-17T01:30:16.137Z,1013.87
2018-05-17T01:31:16.106Z,1013.83
2018-05-17T01:32:16.124Z,1013.84
2018-05-17T01:33:16.144Z,1013.94
2018-05-17T01:34:16.164Z,1013.90
2018-05-17T01:35:16.184Z,1013.87
2018-05-17T01:36:16.202Z,1013.88
2018-05-17T01:37:16.222Z,1013.89
2018-05-17T01:38:16.243Z,1013.90
2018-05-17T01:39:16.261Z,1013.89
2018-05-17T01:40:16.279Z,1013.88
2018-05-17T01:41:16.350Z,1013.87
2018-05-17T01:42:16.319Z,1013.86
2018-05-17T01:43:16.337Z,1013.89
2018-05-17T01:44:16.361Z,1013.93
2018-05-17T01:45:16.376Z,1013.93
2018-05-17T01:46:16.397Z,1013.92
2018-05-17T01:47:16.416Z,1013.94
2018-05-17T01:48:16.434Z,1013.94
2018-05-17T01:49:16.454Z,1013.97
2018-05-17T01:50:16.473Z,1013.95
2018-05-17T01:51:16.497Z,1014.00
2018-05-17T01:52:16.511Z,1013.96
2018-05-17T01:53:16.536Z,1013.97
2018-05-17T01:54:16.552Z,1014.00
2018-05-17T01:55:16.569Z,1014.00
2018-05-17T01:56:16.589Z,1013.94
2018-05-17T01:57:16.608Z,1013.94
2018-05-17T01:58:16.633Z,1013.99
2018-05-17T01:59:16.647Z,1013.94
2018-05-17T02:00:16.724Z,1013.95
2018-05-17T02:01:16.686Z,1013.97
2018-05-17T02:02:16.705Z,1013.99
2018-05-17T02:03:16.724Z,1013.98
2018-05-17T02:04:16.743Z,1013.98
2018-05-17T02:05:16.762Z,1013.97
2018-05-17T02:06:16.781Z,1013.97
2018-05-17T02:07:16.807Z,1013.98
2018-05-17T02:08:16.820Z,1014.00
2018-05-17T02:09:16.838Z,1014.00
2018-05-17T02:10:16.858Z,1014.02
2018-05-17T02:11:16.882Z,1013.97
2018-05-17T02:12:16.896Z,1014.04
2018-05-17T02:13:16.916Z,1014.01
2018-05-17T02:14:16.935Z,1014.02
2018-05-17T02:15:16.955Z,1013.97
2018-05-17T02:16:16.974Z,1013.99
2018-05-17T02:17:16.992Z,1014.02
2018-05-17T02:18:17.014Z,1014.04
2018-05-17T02:19:17.044Z,1013.98
2018-05-17T02:20:17.049Z,1014.02
2018-05-17T02:21:17.069Z,1014.03
2018-05-17T02:22:17.089Z,1014.00
2018-05-17T02:23:17.112Z,1014.03
2018-05-17T02:24:17.126Z,1014.03
2018-05-17T02:25:17.146Z,1014.06
2018-05-17T02:26:17.165Z,1014.01
2018-05-17T02:27:17.184Z,1014.00
2018-05-17T02:28:17.204Z,1014.04
2018-05-17T02:29:17.232Z,1013.99
2018-05-17T02:30:17.253Z,1014.05
2018-05-17T02:31:17.266Z,1014.00
2018-05-17T02:32:17.279Z,1014.03
2018-05-17T02:33:17.299Z,1014.06
2018-05-17T02:34:17.318Z,1014.04
2018-05-17T02:35:17.343Z,1014.01
2018-05-17T02:36:17.360Z,1014.10
2018-05-17T02:37:17.376Z,1014.06
2018-05-17T02:38:17.396Z,1014.08
2018-05-17T02:39:17.414Z,1014.07
2018-05-17T02:40:17.437Z,1014.09
2018-05-17T02:41:17.458Z,1014.10
2018-05-17T02:42:17.473Z,1014.10
2018-05-17T02:43:17.492Z,1014.09
2018-05-17T02:44:17.510Z,1014.10
2018-05-17T02:45:17.534Z,1014.15
2018-05-17T02:46:17.548Z,1014.16
2018-05-17T02:47:17.568Z,1014.16
2018-05-17T02:48:17.586Z,1014.14
2018-05-17T02:49:17.635Z,1014.19
2018-05-17T02:50:17.625Z,1014.15
2018-05-17T02:51:17.646Z,1014.19
2018-05-17T02:52:17.664Z,1014.09
2018-05-17T02:53:17.682Z,1014.12
2018-05-17T02:54:17.700Z,1014.17
2018-05-17T02:55:17.721Z,1014.16
2018-05-17T02:56:17.743Z,1014.22
2018-05-17T02:57:17.766Z,1014.14
2018-05-17T02:58:17.778Z,1014.12
2018-05-17T02:59:17.848Z,1014.19
2018-05-17T03:00:17.816Z,1014.15
2018-05-17T03:01:17.835Z,1014.12
2018-05-17T03:02:17.856Z,1014.16
2018-05-17T03:03:17.873Z,1014.19
2018-05-17T03:04:17.894Z,1014.18
2018-05-17T03:05:17.912Z,1014.26
2018-05-17T03:06:17.930Z,1014.21
2018-05-17T03:07:17.958Z,1014.20
2018-05-17T03:08:17.969Z,1014.16
2018-05-17T03:09:17.988Z,1014.23
2018-05-17T03:10:18.009Z,1014.25
2018-05-17T03:11:18.027Z,1014.23
2018-05-17T03:12:18.045Z,1014.24
2018-05-17T03:13:18.065Z,1014.18
2018-05-17T03:14:18.084Z,1014.26
2018-05-17T03:15:18.103Z,1014.24
2018-05-17T03:16:18.122Z,1014.27
2018-05-17T03:17:18.140Z,1014.24
2018-05-17T03:18:18.160Z,1014.23
2018-05-17T03:19:18.178Z,1014.34
2018-05-17T03:20:18.198Z,1014.35
2018-05-17T03:21:18.217Z,1014.35
2018-05-17T03:22:18.235Z,1014.37
2018-05-17T03:23:18.255Z,1014.39
2018-05-17T03:24:18.273Z,1014.43
2018-05-17T03:25:18.295Z,1014.42
2018-05-17T03:26:18.312Z,1014.42
2018-05-17T03:27:18.331Z,1014.37
2018-05-17T03:28:18.349Z,1014.35
2018-05-17T03:29:18.368Z,1014.39
2018-05-17T03:30:18.388Z,1014.28
2018-05-17T03:31:18.408Z,1014.35
2018-05-17T03:32:18.425Z,1014.36
2018-05-17T03:33:18.444Z,1014.32
2018-05-17T03:34:18.464Z,1014.27
2018-05-17T03:35:18.483Z,1014.27
2018-05-17T03:36:18.500Z,1014.25
2018-05-17T03:37:18.520Z,1014.30
2018-05-17T03:38:18.539Z,1014.29
2018-05-17T03:39:18.564Z,1014.30
2018-05-17T03:40:18.576Z,1014.29
2018-05-17T03:41:18.596Z,1014.30
2018-05-17T03:42:18.616Z,1014.28
2018-05-17T03:43:18.635Z,1014.26
2018-05-17T03:44:18.655Z,1014.32
2018-05-17T03:45:18.671Z,1014.28
2018-05-17T03:46:18.692Z,1014.33
2018-05-17T03:47:18.710Z,1014.33
2018-05-17T03:48:18.728Z,1014.26
2018-05-17T03:49:18.747Z,1014.34
2018-05-17T03:50:18.766Z,1014.28
2018-05-17T03:51:18.786Z,1014.28
2018-05-17T03:52:18.804Z,1014.28
2018-05-17T03:53:18.827Z,1014.31
2018-05-17T03:54:18.841Z,1014.27
2018-05-17T03:55:18.861Z,1014.27
2018-05-17T03:56:18.883Z,1014.33
2018-05-17T03:57:18.898Z,1014.29
2018-05-17T03:58:18.918Z,1014.24
2018-05-17T03:59:18.936Z,1014.29
2018-05-17T04:00:18.955Z,1014.26
2018-05-17T04:01:18.987Z,1014.30
2018-05-17T04:02:18.994Z,1014.30
2018-05-17T04:03:19.012Z,1014.23
2018-05-17T04:04:19.030Z,1014.24
2018-05-17T04:05:19.051Z,1014.30
2018-05-17T04:06:19.069Z,1014.32
2018-05-17T04:07:19.088Z,1014.30
2018-05-17T04:08:19.109Z,1014.27
2018-05-17T04:09:19.125Z,1014.29
2018-05-17T04:10:19.144Z,1014.24
2018-05-17T04:11:19.163Z,1014.28
2018-05-17T04:12:19.187Z,1014.30
2018-05-17T04:13:19.200Z,1014.30
2018-05-17T04:14:19.220Z,1014.30
2018-05-17T04:15:19.239Z,1014.31
2018-05-17T04:16:19.257Z,1014.32
2018-05-17T04:17:19.276Z,1014.35
2018-05-17T04:18:19.296Z,1014.36
2018-05-17T04:19:19.316Z,1014.34
2018-05-17T04:20:19.383Z,1014.37
2018-05-17T04:21:19.352Z,1014.40
2018-05-17T04:22:19.372Z,1014.41
2018-05-17T04:23:19.390Z,1014.37
2018-05-17T04:24:19.413Z,1014.37
2018-05-17T04:25:19.428Z,1014.43
2018-05-17T04:26:19.449Z,1014.40
2018-05-17T04:27:19.469Z,1014.44
2018-05-17T04:28:19.487Z,1014.43
2018-05-17T04:29:19.519Z,1014.42
2018-05-17T04:30:19.525Z,1014.42
2018-05-17T04:31:19.543Z,1014.41
2018-05-17T04:32:19.562Z,1014.43
2018-05-17T04:33:19.580Z,1014.42
2018-05-17T04:34:19.601Z,1014.45
2018-05-17T04:35:19.622Z,1014.46
2018-05-17T04:36:19.639Z,1014.43
2018-05-17T04:37:19.657Z,1014.45
2018-05-17T04:38:19.676Z,1014.48
2018-05-17T04:39:19.697Z,1014.43
2018-05-17T04:40:19.714Z,1014.51
2018-05-17T04:41:19.736Z,1014.45
2018-05-17T04:42:19.752Z,1014.44
2018-05-17T04:43:19.773Z,1014.44
2018-05-17T04:44:19.791Z,1014.43
2018-05-17T04:45:19.810Z,1014.46
2018-05-17T04:46:19.829Z,1014.43
2018-05-17T04:47:19.853Z,1014.44
2018-05-17T04:48:19.870Z,1014.44
2018-05-17T04:49:19.886Z,1014.42
2018-05-17T04:50:19.905Z,1014.39
2018-05-17T04:51:19.926Z,1014.41
2018-05-17T04:52:19.943Z,1014.44
2018-05-17T04:53:19.964Z,1014.46
2018-05-17T04:54:19.983Z,1014.43
2018-05-17T04:55:20.001Z,1014.43
2018-05-17T04:56:20.020Z,1014.41
2018-05-17T04:57:20.040Z,1014.45
2018-05-17T04:58:20.059Z,1014.42
2018-05-17T04:59:20.079Z,1014.47
2018-05-17T05:00:20.097Z,1014.43
2018-05-17T05:01:20.116Z,1014.45
2018-05-17T05:02:20.136Z,1014.44
2018-05-17T05:03:20.153Z,1014.41
2018-05-17T05:04:20.172Z,1014.44
2018-05-17T05:05:20.194Z,1014.45
2018-05-17T05:06:20.211Z,1014.45
2018-05-17T05:07:20.231Z,1014.49
2018-05-17T05:08:20.250Z,1014.48
2018-05-17T05:09:20.332Z,1014.50
2018-05-17T05:10:20.288Z,1014.53
2018-05-17T05:11:20.308Z,1014.55
2018-05-17T05:12:20.327Z,1014.50
2018-05-17T05:13:20.347Z,1014.56
2018-05-17T05:14:20.366Z,1014.59
2018-05-17T05:15:20.388Z,1014.53
2018-05-17T05:16:20.402Z,1014.48
2018-05-17T05:17:20.421Z,1014.52
2018-05-17T05:18:20.442Z,1014.45
2018-05-17T05:19:20.460Z,1014.48
2018-05-17T05:20:20.530Z,1014.51
2018-05-17T05:21:20.498Z,1014.52
2018-05-17T05:22:20.519Z,1014.54
2018-05-17T05:23:20.538Z,1014.52
2018-05-17T05:24:20.556Z,1014.54
2018-05-17T05:25:20.579Z,1014.53
2018-05-17T05:26:20.595Z,1014.59
2018-05-17T05:27:20.616Z,1014.59
2018-05-17T05:28:20.635Z,1014.58
2018-05-17T05:29:20.654Z,1014.62
2018-05-17T05:30:20.673Z,1014.57
2018-05-17T05:31:20.692Z,1014.56
2018-05-17T05:32:20.711Z,1014.56
2018-05-17T05:33:20.730Z,1014.64
2018-05-17T05:34:20.751Z,1014.59
2018-05-17T05:35:20.771Z,1014.69
2018-05-17T05:36:20.789Z,1014.66
2018-05-17T05:37:20.808Z,1014.67
2018-05-17T05:38:20.830Z,1014.68
2018-05-17T05:39:20.848Z,1014.66
2018-05-17T05:40:20.865Z,1014.68
2018-05-17T05:41:20.885Z,1014.74
2018-05-17T05:42:20.906Z,1014.69
2018-05-17T05:43:20.988Z,1014.67
2018-05-17T05:44:20.944Z,1014.70
2018-05-17T05:45:20.962Z,1014.69
2018-05-17T05:46:20.982Z,1014.68
2018-05-17T05:47:21.001Z,1014.70
2018-05-17T05:48:21.020Z,1014.63
2018-05-17T05:49:21.123Z,1014.67
2018-05-17T05:50:21.062Z,1014.65
2018-05-17T05:51:21.079Z,1014.65
2018-05-17T05:52:21.099Z,1014.69
2018-05-17T05:53:21.117Z,1014.64
2018-05-17T05:54:21.142Z,1014.73
2018-05-17T05:55:21.157Z,1014.73
2018-05-17T05:56:21.176Z,1014.76
2018-05-17T05:57:21.194Z,1014.76
2018-05-17T05:58:21.217Z,1014.77
2018-05-17T05:59:21.235Z,1014.75
2018-05-17T06:00:21.254Z,1014.82
2018-05-17T06:01:21.273Z,1014.76
2018-05-17T06:02:21.340Z,1014.82
2018-05-17T06:03:21.312Z,1014.77
2018-05-17T06:04:21.331Z,1014.80
2018-05-17T06:05:21.351Z,1014.78
2018-05-17T06:06:21.371Z,1014.80
2018-05-17T06:07:21.396Z,1014.76
2018-05-17T06:08:21.444Z,1014.74
2018-05-17T06:09:21.428Z,1014.79
2018-05-17T06:10:21.448Z,1014.80
2018-05-17T06:11:21.468Z,1014.80
2018-05-17T06:12:21.488Z,1014.80
2018-05-17T06:13:21.508Z,1014.76
2018-05-17T06:14:21.527Z,1014.74
2018-05-17T06:15:21.549Z,1014.77
2018-05-17T06:16:21.567Z,1014.79
2018-05-17T06:17:21.604Z,1014.81
2018-05-17T06:18:21.605Z,1014.81
2018-05-17T06:19:21.624Z,1014.84
2018-05-17T06:20:21.645Z,1014.90
2018-05-17T06:21:21.663Z,1014.91
2018-05-17T06:22:21.687Z,1014.89
2018-05-17T06:23:21.703Z,1014.94
2018-05-17T06:24:21.722Z,1014.90
2018-05-17T06:25:21.742Z,1014.99
2018-05-17T06:26:21.761Z,1014.97
2018-05-17T06:27:21.782Z,1014.98
2018-05-17T06:28:21.800Z,1014.97
2018-05-17T06:29:21.820Z,1014.98
2018-05-17T06:30:21.864Z,1014.95
2018-05-17T06:31:21.860Z,1014.93
2018-05-17T06:32:21.880Z,1014.96
2018-05-17T06:33:21.899Z,1014.93
2018-05-17T06:34:21.919Z,1014.92
2018-05-17T06:35:21.939Z,1014.95
2018-05-17T06:36:21.958Z,1014.95
2018-05-17T06:37:21.977Z,1014.99
2018-05-17T06:38:21.997Z,1014.98
2018-05-17T06:39:22.018Z,1015.01
2018-05-17T06:40:22.036Z,1015.01
2018-05-17T06:41:22.056Z,1015.03
2018-05-17T06:42:22.076Z,1014.99
2018-05-17T06:43:22.096Z,1014.99
2018-05-17T06:44:22.116Z,1014.95
2018-05-17T06:45:22.135Z,1014.96
2018-05-17T06:46:22.155Z,1014.99
2018-05-17T06:47:22.174Z,1014.99
2018-05-17T06:48:22.274Z,1014.95
2018-05-17T06:49:22.213Z,1015.01
2018-05-17T06:50:22.233Z,1015.03
2018-05-17T06:51:22.255Z,1015.02
2018-05-17T06:52:22.274Z,1015.04
2018-05-17T06:53:22.293Z,1015.05
2018-05-17T06:54:22.313Z,1015.05
2018-05-17T06:55:22.334Z,1015.07
2018-05-17T06:56:22.352Z,1015.11
2018-05-17T06:57:22.372Z,1015.10
2018-05-17T06:58:22.393Z,1015.05
2018-05-17T06:59:22.416Z,1015.12
2018-05-17T07:00:22.432Z,1015.08
2018-05-17T07:01:22.451Z,1015.06
2018-05-17T07:02:22.572Z,1015.09
2018-05-17T07:03:22.492Z,1015.05
2018-05-17T07:04:22.511Z,1015.04
2018-05-17T07:05:22.531Z,1015.07
2018-05-17T07:06:22.552Z,1015.10
2018-05-17T07:07:22.572Z,1015.15
2018-05-17T07:08:22.592Z,1015.11
2018-05-17T07:09:22.611Z,1015.08
2018-05-17T07:10:22.632Z,1015.07
2018-05-17T07:11:22.652Z,1015.07
2018-05-17T07:12:22.671Z,1015.10
2018-05-17T07:13:22.692Z,1015.04
2018-05-17T07:14:22.716Z,1015.07
2018-05-17T07:15:22.733Z,1015.05
2018-05-17T07:16:22.751Z,1015.05
2018-05-17T07:17:22.771Z,1015.08
2018-05-17T07:18:23.006Z,1015.08
2018-05-17T07:19:22.813Z,1015.11
2018-05-17T07:20:22.832Z,1015.16
2018-05-17T07:21:22.852Z,1015.10
2018-05-17T07:22:22.873Z,1015.09
2018-05-17T07:23:22.892Z,1015.17
2018-05-17T07:24:22.912Z,1015.16
2018-05-17T07:25:22.932Z,1015.09
2018-05-17T07:26:22.954Z,1015.17
2018-05-17T07:27:22.973Z,1015.18
2018-05-17T07:28:22.994Z,1015.16
2018-05-17T07:29:23.014Z,1015.24
2018-05-17T07:30:23.034Z,1015.19
2018-05-17T07:31:23.129Z,1015.20
2018-05-17T07:32:23.083Z,1015.20
2018-05-17T07:33:23.096Z,1015.18
2018-05-17T07:34:23.117Z,1015.21
2018-05-17T07:35:23.138Z,1015.26
2018-05-17T07:36:23.157Z,1015.21
2018-05-17T07:37:23.177Z,1015.23
2018-05-17T07:38:23.203Z,1015.25
2018-05-17T07:39:23.218Z,1015.21
2018-05-17T07:40:23.240Z,1015.16
2018-05-17T07:41:23.260Z,1015.23
2018-05-17T07:42:23.282Z,1015.28
2018-05-17T07:43:23.301Z,1015.24
2018-05-17T07:44:23.320Z,1015.27
2018-05-17T07:45:23.340Z,1015.23
2018-05-17T07:46:23.361Z,1015.25
2018-05-17T07:47:23.381Z,1015.25
2018-05-17T07:48:23.401Z,1015.27
2018-05-17T07:49:23.421Z,1015.24
2018-05-17T07:50:23.442Z,1015.26
2018-05-17T07:51:23.462Z,1015.24
2018-05-17T07:52:23.481Z,1015.33
2018-05-17T07:53:23.504Z,1015.30
2018-05-17T07:54:23.691Z,1015.26
2018-05-17T07:55:23.546Z,1015.27
2018-05-17T07:56:23.564Z,1015.23
2018-05-17T07:57:23.583Z,1015.24
2018-05-17T07:58:23.604Z,1015.25
2018-05-17T07:59:23.626Z,1015.28
2018-05-17T08:00:23.747Z,1015.27
2018-05-17T08:01:23.665Z,1015.31
2018-05-17T08:02:23.686Z,1015.30
2018-05-17T08:03:23.707Z,1015.34
2018-05-17T08:04:23.728Z,1015.35
2018-05-17T08:05:23.750Z,1015.34
2018-05-17T08:06:23.769Z,1015.35
2018-05-17T08:07:23.791Z,1015.37
2018-05-17T08:08:23.811Z,1015.35
2018-05-17T08:09:23.926Z,1015.40
2018-05-17T08:10:23.855Z,1015.46
2018-05-17T08:11:23.955Z,1015.44
2018-05-17T08:12:23.894Z,1015.44
2018-05-17T08:13:23.918Z,1015.46
2018-05-17T08:14:23.941Z,1015.42
2018-05-17T08:15:23.959Z,1015.44
2018-05-17T08:16:23.979Z,1015.38
2018-05-17T08:17:24.000Z,1015.48
2018-05-17T08:18:24.022Z,1015.50
2018-05-17T08:19:24.041Z,1015.51
2018-05-17T08:20:24.061Z,1015.48
2018-05-17T08:21:24.083Z,1015.49
2018-05-17T08:22:24.111Z,1015.48
2018-05-17T08:23:24.125Z,1015.46
2018-05-17T08:24:24.145Z,1015.48
2018-05-17T08:25:24.169Z,1015.52
2018-05-17T08:26:24.188Z,1015.51
2018-05-17T08:27:24.210Z,1015.54
2018-05-17T08:28:24.232Z,1015.46
2018-05-17T08:29:24.255Z,1015.52
2018-05-17T08:30:24.371Z,1015.55
2018-05-17T08:31:24.293Z,1015.60
2018-05-17T08:32:24.313Z,1015.55
2018-05-17T08:33:24.335Z,1015.59
2018-05-17T08:34:24.359Z,1015.62
2018-05-17T08:35:24.378Z,1015.58
2018-05-17T08:36:24.585Z,1015.58
2018-05-17T08:37:24.429Z,1015.60
2018-05-17T08:38:24.441Z,1015.58
2018-05-17T08:39:24.463Z,1015.53
2018-05-17T08:40:24.483Z,1015.54
2018-05-17T08:41:24.504Z,1015.57
2018-05-17T08:42:24.525Z,1015.60
2018-05-17T08:43:24.547Z,1015.65
2018-05-17T08:44:24.568Z,1015.61
2018-05-17T08:45:25.541Z,1015.58
2018-05-17T08:46:24.611Z,1015.61
2018-05-17T08:47:24.632Z,1015.61
2018-05-17T08:48:24.653Z,1015.59
2018-05-17T08:49:24.673Z,1015.58
2018-05-17T08:50:24.696Z,1015.53
2018-05-17T08:51:24.716Z,1015.53
2018-05-17T08:52:24.736Z,1015.52
2018-05-17T08:53:24.758Z,1015.53
2018-05-17T08:54:24.833Z,1015.41
2018-05-17T08:55:24.800Z,1015.48
2018-05-17T08:56:24.821Z,1015.41
2018-05-17T08:57:24.842Z,1015.40
2018-05-17T08:58:24.866Z,1015.45
2018-05-17T08:59:24.936Z,1015.48
2018-05-17T09:00:24.910Z,1015.48
2018-05-17T09:01:24.929Z,1015.56
2018-05-17T09:02:24.949Z,1015.51
2018-05-17T09:03:24.975Z,1015.51
2018-05-17T09:04:24.991Z,1015.52
2018-05-17T09:05:25.013Z,1015.53
2018-05-17T09:06:25.034Z,1015.51
2018-05-17T09:07:25.057Z,1015.53
2018-05-17T09:08:25.079Z,1015.52
2018-05-17T09:09:25.098Z,1015.52
2018-05-17T09:10:25.119Z,1015.51
2018-05-17T09:11:25.141Z,1015.49
2018-05-17T09:12:25.162Z,1015.54
2018-05-17T09:13:25.269Z,1015.50
2018-05-17T09:14:25.209Z,1015.50
2018-05-17T09:15:25.226Z,1015.47
2018-05-17T09:16:25.247Z,1015.47
2018-05-17T09:17:25.268Z,1015.50
2018-05-17T09:18:25.292Z,1015.52
2018-05-17T09:19:25.367Z,1015.49
2018-05-17T09:20:25.348Z,1015.48
2018-05-17T09:21:25.353Z,1015.57
2018-05-17T09:22:25.374Z,1015.52
2018-05-17T09:23:25.399Z,1015.55
2018-05-17T09:24:25.451Z,1015.61
2018-05-17T09:25:25.438Z,1015.62
2018-05-17T09:26:25.461Z,1015.55
2018-05-17T09:27:25.482Z,1015.60
2018-05-17T09:28:25.502Z,1015.59
2018-05-17T09:29:25.526Z,1015.58
2018-05-17T09:30:25.547Z,1015.53
2018-05-17T09:31:25.566Z,1015.53
2018-05-17T09:32:25.587Z,1015.50
2018-05-17T09:33:25.609Z,1015.48
2018-05-17T09:34:25.633Z,1015.56
2018-05-17T09:35:25.654Z,1015.54
2018-05-17T09:36:25.674Z,1015.52
2018-05-17T09:37:25.694Z,1015.50
2018-05-17T09:38:25.718Z,1015.52
2018-05-17T09:39:25.738Z,1015.56
2018-05-17T09:40:25.761Z,1015.53
2018-05-17T09:41:25.866Z,1015.62
2018-05-17T09:42:25.803Z,1015.51
2018-05-17T09:43:25.825Z,1015.50
2018-05-17T09:44:25.847Z,1015.57
2018-05-17T09:45:25.867Z,1015.61
2018-05-17T09:46:25.888Z,1015.60
2018-05-17T09:47:25.910Z,1015.64
2018-05-17T09:48:25.931Z,1015.68
2018-05-17T09:49:25.956Z,1015.66
2018-05-17T09:50:25.974Z,1015.64
2018-05-17T09:51:26.001Z,1015.66
2018-05-17T09:52:26.017Z,1015.60
2018-05-17T09:53:26.039Z,1015.63
2018-05-17T09:54:26.060Z,1015.59
2018-05-17T09:55:26.081Z,1015.53
2018-05-17T09:56:26.104Z,1015.55
2018-05-17T09:57:26.124Z,1015.52
2018-05-17T09:58:26.153Z,1015.49
2018-05-17T09:59:26.167Z,1015.56
2018-05-17T10:00:26.187Z,1015.52
2018-05-17T10:01:26.210Z,1015.50
2018-05-17T10:02:26.231Z,1015.45
2018-05-17T10:03:26.253Z,1015.42
2018-05-17T10:04:26.274Z,1015.54
2018-05-17T10:05:26.296Z,1015.47
2018-05-17T10:06:26.319Z,1015.46
2018-05-17T10:07:26.339Z,1015.42
2018-05-17T10:08:26.361Z,1015.43
2018-05-17T10:09:26.382Z,1015.45
2018-05-17T10:10:26.403Z,1015.40
2018-05-17T10:11:26.425Z,1015.43
2018-05-17T10:12:26.445Z,1015.40
2018-05-17T10:13:26.468Z,1015.44
2018-05-17T10:14:26.490Z,1015.32
2018-05-17T10:15:26.556Z,1015.37
2018-05-17T10:16:26.533Z,1015.33
2018-05-17T10:17:26.555Z,1015.30
2018-05-17T10:18:26.579Z,1015.31
2018-05-17T10:19:26.600Z,1015.28
2018-05-17T10:20:26.619Z,1015.28
2018-05-17T10:21:26.641Z,1015.25
2018-05-17T10:22:26.662Z,1015.29
2018-05-17T10:23:26.683Z,1015.29
2018-05-17T10:24:26.714Z,1015.31
2018-05-17T10:25:26.731Z,1015.26
2018-05-17T10:26:26.749Z,1015.19
2018-05-17T10:27:26.773Z,1015.19
2018-05-17T10:28:26.792Z,1015.22
2018-05-17T10:29:26.890Z,1015.21
2018-05-17T10:30:26.837Z,1015.21
2018-05-17T10:31:26.860Z,1015.17
2018-05-17T10:32:26.879Z,1015.27
2018-05-17T10:33:26.901Z,1015.24
2018-05-17T10:34:26.923Z,1015.23
2018-05-17T10:35:26.947Z,1015.19
2018-05-17T10:36:26.966Z,1015.18
2018-05-17T10:37:26.988Z,1015.19
2018-05-17T10:38:27.015Z,1015.16
2018-05-17T10:39:27.034Z,1015.20
2018-05-17T10:40:27.055Z,1015.13
2018-05-17T10:41:27.078Z,1015.13
2018-05-17T10:42:27.102Z,1015.21
2018-05-17T10:43:27.121Z,1015.18
2018-05-17T10:44:27.143Z,1015.16
2018-05-17T10:45:27.164Z,1015.18
2018-05-17T10:46:27.186Z,1015.13
2018-05-17T10:47:27.209Z,1015.11
2018-05-17T10:48:27.230Z,1015.13
2018-05-17T10:49:27.253Z,1015.15
2018-05-17T10:50:27.278Z,1015.19
2018-05-17T10:51:27.298Z,1015.20
2018-05-17T10:52:27.318Z,1015.19
2018-05-17T10:53:27.341Z,1015.22
2018-05-17T10:54:27.398Z,1015.14
2018-05-17T10:55:27.388Z,1015.18
2018-05-17T10:56:27.407Z,1015.20
2018-05-17T10:57:27.437Z,1015.20
2018-05-17T10:58:27.452Z,1015.17
2018-05-17T10:59:27.476Z,1015.16
2018-05-17T11:00:27.495Z,1015.18
2018-05-17T11:01:27.521Z,1015.18
2018-05-17T11:02:27.564Z,1015.15
2018-05-17T11:03:27.564Z,1015.16
2018-05-17T11:04:27.586Z,1015.14
2018-05-17T11:05:27.606Z,1015.11
2018-05-17T11:06:27.634Z,1015.15
2018-05-17T11:07:27.653Z,1015.09
2018-05-17T11:08:27.677Z,1015.08
2018-05-17T11:09:27.697Z,1015.10
2018-05-17T11:10:27.718Z,1015.06
2018-05-17T11:11:27.742Z,1015.12
2018-05-17T11:12:27.762Z,1015.12
2018-05-17T11:13:27.784Z,1015.16
2018-05-17T11:14:27.808Z,1015.12
2018-05-17T11:15:27.830Z,1015.16
2018-05-17T11:16:27.851Z,1015.12
2018-05-17T11:17:27.874Z,1015.08
2018-05-17T11:18:27.896Z,1015.09
2018-05-17T11:19:27.921Z,1015.04
2018-05-17T11:20:27.940Z,1015.04
2018-05-17T11:21:27.965Z,1015.06
2018-05-17T11:22:27.987Z,1015.10
2018-05-17T11:23:28.009Z,1015.13
2018-05-17T11:24:28.130Z,1015.09
2018-05-17T11:25:28.102Z,1015.10
2018-05-17T11:26:28.326Z,1015.05
2018-05-17T11:27:28.097Z,1015.04
2018-05-17T11:28:28.122Z,1015.07
2018-05-17T11:29:28.140Z,1015.13
2018-05-17T11:30:28.163Z,1015.01
2018-05-17T11:31:28.185Z,1014.95
2018-05-17T11:32:28.310Z,1015.00
2018-05-17T11:33:28.230Z,1015.03
2018-05-17T11:34:28.282Z,1014.99
2018-05-17T11:35:28.284Z,1015.02
2018-05-17T11:36:28.347Z,1014.99
2018-05-17T11:37:28.318Z,1015.06
2018-05-17T11:38:28.421Z,1014.99
2018-05-17T11:39:28.363Z,1014.99
2018-05-17T11:40:28.384Z,1015.04
2018-05-17T11:41:28.407Z,1015.01
2018-05-17T11:42:28.431Z,1014.99
2018-05-17T11:43:28.454Z,1014.96
2018-05-17T11:44:28.473Z,1014.93
2018-05-17T11:45:28.497Z,1014.90
2018-05-17T11:46:28.519Z,1014.91
2018-05-17T11:47:28.542Z,1014.89
2018-05-17T11:48:28.630Z,1014.96
2018-05-17T11:49:28.587Z,1014.88
2018-05-17T11:50:28.702Z,1014.87
2018-05-17T11:51:28.631Z,1014.87
2018-05-17T11:52:28.654Z,1014.83
2018-05-17T11:53:28.676Z,1014.79
2018-05-17T11:54:28.698Z,1014.84
2018-05-17T11:55:28.721Z,1014.89
2018-05-17T11:56:28.744Z,1014.84
2018-05-17T11:57:28.766Z,1014.85
2018-05-17T11:58:28.788Z,1014.87
2018-05-17T11:59:28.811Z,1014.80
2018-05-17T12:00:28.832Z,1014.81
2018-05-17T12:01:28.923Z,1014.91
2018-05-17T12:02:28.927Z,1014.85
2018-05-17T12:03:28.900Z,1014.90
2018-05-17T12:04:28.923Z,1014.92
2018-05-17T12:05:28.945Z,1014.90